createdAt,value
2023-03-21T00:00:42.472Z,99.90
2023-03-21T00:03:09.246Z,99.90
2023-03-21T00:05:49.762Z,99.90
2023-03-21T00:08:16.694Z,99.90
2023-03-21T00:10:44.062Z,99.90
2023-03-21T00:13:15.451Z,99.90
2023-03-21T00:16:06.683Z,99.90
2023-03-21T00:18:42.517Z,99.90
2023-03-21T00:24:00.970Z,99.90
2023-03-21T00:26:28.017Z,99.90
2023-03-21T00:28:54.799Z,99.90
2023-03-21T00:31:21.547Z,99.90
2023-03-21T00:33:48.456Z,99.90
2023-03-21T00:36:16.038Z,99.90
2023-03-21T00:38:43.189Z,99.90
2023-03-21T00:41:25.886Z,99.90
2023-03-21T00:43:58.329Z,99.90
2023-03-21T00:46:27.604Z,99.90
2023-03-21T00:48:56.981Z,99.90
2023-03-21T00:51:27.072Z,99.90
2023-03-21T00:53:56.035Z,99.90
2023-03-21T00:56:23.238Z,99.90
2023-03-21T00:58:51.274Z,99.90
2023-03-21T01:01:18.662Z,99.90
2023-03-21T01:03:48.022Z,99.90
2023-03-21T01:06:19.273Z,99.90
2023-03-21T01:08:52.574Z,99.90
2023-03-21T01:11:22.774Z,99.90
2023-03-21T01:14:20.918Z,99.90
2023-03-21T01:16:37.161Z,99.90
2023-03-21T01:19:09.258Z,99.90
2023-03-21T01:21:41.615Z,99.90
2023-03-21T01:24:08.827Z,99.90
2023-03-21T01:26:37.449Z,99.90
2023-03-21T01:29:05.597Z,99.90
2023-03-21T01:31:32.433Z,99.90
2023-03-21T01:33:59.283Z,99.90
2023-03-21T01:36:26.878Z,99.90
2023-03-21T01:38:54.461Z,99.90
2023-03-21T01:41:22.058Z,99.90
2023-03-21T01:43:49.851Z,99.90
2023-03-21T01:46:54.498Z,99.90
2023-03-21T01:49:35.956Z,99.90
2023-03-21T01:52:13.130Z,99.90
2023-03-21T01:54:46.797Z,99.90
2023-03-21T01:57:22.001Z,99.90
2023-03-21T01:59:52.556Z,99.90
2023-03-21T02:02:24.452Z,99.90
2023-03-21T02:04:56.165Z,99.90
2023-03-21T02:07:29.597Z,99.90
2023-03-21T02:09:58.132Z,99.90
2023-03-21T02:12:26.696Z,99.90
2023-03-21T02:14:55.525Z,99.90
2023-03-21T02:17:33.132Z,99.90
2023-03-21T02:19:59.801Z,99.90
2023-03-21T02:22:48.175Z,99.90
2023-03-21T02:25:22.588Z,99.90
2023-03-21T02:28:08.009Z,99.90
2023-03-21T02:30:59.490Z,99.90
2023-03-21T02:34:05.306Z,99.90
2023-03-21T02:36:43.847Z,99.90
2023-03-21T02:39:25.569Z,99.90
2023-03-21T02:42:07.656Z,99.90
2023-03-21T02:44:43.670Z,99.90
2023-03-21T02:47:26.463Z,99.90
2023-03-21T02:50:03.644Z,99.90
2023-03-21T02:52:39.208Z,99.90
2023-03-21T02:55:13.903Z,99.90
2023-03-21T02:57:43.928Z,99.90
2023-03-21T03:00:17.848Z,99.90
2023-03-21T03:02:45.987Z,99.90
2023-03-21T03:05:21.323Z,99.90
2023-03-21T03:08:06.719Z,99.90
2023-03-21T03:10:48.433Z,99.90
2023-03-21T03:13:51.019Z,99.90
2023-03-21T03:16:30.110Z,99.90
2023-03-21T03:19:01.303Z,99.90
2023-03-21T03:21:39.601Z,99.90
2023-03-21T03:24:09.356Z,99.90
2023-03-21T03:26:46.878Z,99.90
2023-03-21T03:29:16.740Z,99.90
2023-03-21T03:31:56.864Z,99.90
2023-03-21T03:34:28.238Z,99.90
2023-03-21T03:36:59.723Z,99.90
2023-03-21T03:39:41.416Z,99.90
2023-03-21T03:42:27.460Z,99.90
2023-03-21T03:44:56.483Z,99.90
2023-03-21T03:47:36.123Z,99.90
2023-03-21T03:50:20.298Z,99.90
2023-03-21T03:52:57.010Z,99.90
2023-03-21T03:55:27.278Z,99.90
2023-03-21T03:57:55.562Z,99.90
2023-03-21T04:00:22.289Z,99.90
2023-03-21T04:02:49.155Z,99.90
2023-03-21T04:05:20.995Z,99.90
2023-03-21T04:07:50.968Z,99.90
2023-03-21T04:10:18.740Z,99.90
2023-03-21T04:12:45.718Z,99.90
2023-03-21T04:15:12.862Z,99.90
2023-03-21T04:17:40.069Z,99.90
2023-03-21T04:20:12.308Z,99.90
2023-03-21T04:22:43.491Z,99.90
2023-03-21T04:25:10.599Z,99.90
2023-03-21T04:27:37.586Z,99.90
2023-03-21T04:30:06.100Z,99.90
2023-03-21T04:32:33.913Z,99.90
2023-03-21T04:35:01.039Z,99.90
2023-03-21T04:37:28.061Z,99.90
2023-03-21T04:39:54.854Z,99.90
2023-03-21T04:42:21.794Z,99.90
2023-03-21T04:44:49.378Z,99.90
2023-03-21T04:47:16.965Z,99.90
2023-03-21T04:49:43.873Z,99.90
2023-03-21T04:52:10.888Z,99.90
2023-03-21T04:54:37.667Z,99.90
2023-03-21T04:57:04.789Z,99.90
2023-03-21T04:59:31.770Z,99.90
2023-03-21T05:01:58.692Z,99.90
2023-03-21T05:04:27.464Z,99.90
2023-03-21T05:06:55.963Z,99.90
2023-03-21T05:09:23.267Z,99.90
2023-03-21T05:11:50.607Z,99.90
2023-03-21T05:14:20.917Z,99.90
2023-03-21T05:16:53.329Z,99.90
2023-03-21T05:19:23.077Z,99.90
2023-03-21T05:21:50.436Z,99.90
2023-03-21T05:24:22.421Z,99.90
2023-03-21T05:26:52.610Z,99.90
2023-03-21T05:29:19.762Z,99.90
2023-03-21T05:31:46.849Z,99.90
2023-03-21T05:34:14.300Z,99.90
2023-03-21T05:36:40.990Z,99.90
2023-03-21T05:39:07.751Z,99.90
2023-03-21T05:41:34.509Z,99.90
2023-03-21T05:44:01.253Z,99.90
2023-03-21T05:46:28.056Z,99.90
2023-03-21T05:48:54.866Z,99.90
2023-03-21T05:51:21.630Z,99.90
2023-03-21T05:53:48.833Z,99.90
2023-03-21T05:56:16.480Z,99.90
2023-03-21T05:58:43.315Z,99.90
2023-03-21T06:01:10.479Z,99.90
2023-03-21T06:03:37.347Z,99.90
2023-03-21T06:06:04.447Z,99.90
2023-03-21T06:08:32.169Z,99.90
2023-03-21T06:10:59.085Z,99.90
2023-03-21T06:13:25.904Z,99.90
2023-03-21T06:15:52.632Z,99.90
2023-03-21T06:18:19.465Z,99.90
2023-03-21T06:20:46.309Z,99.90
2023-03-21T06:23:13.054Z,99.90
2023-03-21T06:25:40.236Z,99.90
2023-03-21T06:28:07.082Z,99.90
2023-03-21T06:30:33.838Z,99.90
2023-03-21T06:33:00.922Z,99.90
2023-03-21T06:35:27.685Z,99.90
2023-03-21T06:37:54.671Z,99.90
2023-03-21T06:40:21.584Z,99.90
2023-03-21T06:42:48.305Z,99.90
2023-03-21T06:45:15.436Z,99.90
2023-03-21T06:47:42.270Z,99.90
2023-03-21T06:50:10.786Z,99.90
2023-03-21T06:52:38.829Z,99.90
2023-03-21T06:55:06.003Z,99.90
2023-03-21T06:57:32.743Z,99.90
2023-03-21T06:59:59.461Z,99.90
2023-03-21T07:02:26.737Z,99.90
2023-03-21T07:04:54.072Z,99.90
2023-03-21T07:07:26.023Z,99.90
2023-03-21T07:09:52.940Z,99.90
2023-03-21T07:12:19.606Z,99.90
2023-03-21T07:14:46.297Z,99.90
2023-03-21T07:17:13.075Z,99.90
2023-03-21T07:19:39.951Z,99.90
2023-03-21T07:22:06.700Z,99.90
2023-03-21T07:24:33.485Z,99.90
2023-03-21T07:27:00.335Z,99.90
2023-03-21T07:29:27.115Z,99.90
2023-03-21T07:31:54.200Z,99.90
2023-03-21T07:34:20.922Z,99.90
2023-03-21T07:36:47.800Z,99.90
2023-03-21T07:39:14.597Z,99.90
2023-03-21T07:41:41.352Z,99.90
2023-03-21T07:44:08.174Z,99.90
2023-03-21T07:46:34.867Z,99.90
2023-03-21T07:49:01.668Z,99.90
2023-03-21T07:51:28.349Z,99.90
2023-03-21T07:53:55.194Z,99.90
2023-03-21T07:56:21.964Z,99.90
2023-03-21T07:58:48.777Z,99.90
2023-03-21T08:01:15.795Z,99.90
2023-03-21T08:03:43.418Z,99.90
2023-03-21T08:06:10.814Z,99.90
2023-03-21T08:08:37.707Z,99.90
2023-03-21T08:11:05.258Z,99.90
2023-03-21T08:13:33.247Z,99.90
2023-03-21T08:16:00.089Z,99.90
2023-03-21T08:18:26.927Z,99.90
2023-03-21T08:20:55.652Z,99.90
2023-03-21T08:23:23.627Z,99.90
2023-03-21T08:25:56.893Z,99.90
2023-03-21T08:28:23.838Z,99.90
2023-03-21T08:30:51.143Z,99.90
2023-03-21T08:33:18.849Z,99.90
2023-03-21T08:35:46.680Z,99.90
2023-03-21T08:38:14.213Z,99.90
2023-03-21T08:40:41.460Z,99.90
2023-03-21T08:43:08.343Z,99.90
2023-03-21T08:45:35.153Z,99.90
2023-03-21T08:48:02.021Z,99.90
2023-03-21T08:50:31.622Z,99.90
2023-03-21T08:52:58.492Z,99.90
2023-03-21T08:55:25.579Z,99.90
2023-03-21T08:57:52.334Z,99.90
2023-03-21T09:00:20.872Z,99.90
2023-03-21T09:02:51.439Z,99.90
2023-03-21T09:05:18.693Z,99.90
2023-03-21T09:07:45.892Z,99.90
2023-03-21T09:10:21.001Z,99.90
2023-03-21T09:12:50.493Z,99.90
2023-03-21T09:15:20.190Z,99.90
2023-03-21T09:17:52.675Z,99.90
2023-03-21T09:20:25.944Z,99.90
2023-03-21T09:22:53.334Z,99.90
2023-03-21T09:25:21.155Z,99.90
2023-03-21T09:27:48.384Z,99.90
2023-03-21T09:30:20.813Z,99.90
2023-03-21T09:32:49.574Z,99.90
2023-03-21T09:35:18.861Z,99.90
2023-03-21T09:37:49.937Z,99.90
2023-03-21T09:40:31.241Z,99.90
2023-03-21T09:43:06.965Z,99.90
2023-03-21T09:45:38.487Z,99.90
2023-03-21T09:48:07.846Z,99.90
2023-03-21T09:50:37.722Z,99.90
2023-03-21T09:53:17.640Z,99.90
2023-03-21T09:55:44.539Z,99.90
2023-03-21T09:58:20.576Z,99.90
2023-03-21T10:00:56.522Z,99.90
2023-03-21T10:03:29.324Z,99.90
2023-03-21T10:06:01.559Z,99.90
2023-03-21T10:08:41.192Z,99.90
2023-03-21T10:11:13.848Z,99.90
2023-03-21T10:13:54.597Z,99.90
2023-03-21T10:16:41.483Z,99.90
2023-03-21T10:19:13.992Z,99.90
2023-03-21T10:22:03.359Z,99.90
2023-03-21T10:24:33.854Z,99.90
2023-03-21T10:27:01.688Z,99.90
2023-03-21T10:29:42.391Z,99.90
2023-03-21T10:32:15.292Z,99.90
2023-03-21T10:37:24.280Z,99.90
2023-03-21T10:39:52.840Z,99.90
2023-03-21T10:42:37.537Z,99.90
2023-03-21T10:45:16.515Z,99.90
2023-03-21T10:47:44.174Z,99.90
2023-03-21T10:50:17.666Z,99.90
2023-03-21T10:52:53.277Z,99.90
2023-03-21T10:55:31.292Z,99.90
2023-03-21T10:58:13.476Z,99.90
2023-03-21T11:00:43.347Z,99.90
2023-03-21T11:03:38.489Z,99.90
2023-03-21T11:06:12.334Z,99.90
2023-03-21T11:08:48.966Z,99.90
2023-03-21T11:11:58.647Z,99.90
2023-03-21T11:14:34.026Z,99.00
2023-03-21T11:17:00.841Z,99.60
2023-03-21T11:19:32.802Z,99.70
2023-03-21T11:22:06.074Z,99.90
2023-03-21T11:24:35.385Z,99.50
2023-03-21T11:27:07.545Z,98.80
2023-03-21T11:29:55.269Z,99.20
2023-03-21T11:32:25.194Z,98.60
2023-03-21T11:34:58.822Z,98.60
2023-03-21T11:37:38.664Z,98.60
2023-03-21T11:40:07.966Z,98.30
2023-03-21T11:42:43.693Z,97.90
2023-03-21T11:45:18.349Z,98.50
2023-03-21T11:47:47.228Z,97.60
2023-03-21T11:50:16.755Z,96.80
2023-03-21T11:52:57.528Z,98.60
2023-03-21T11:55:38.605Z,96.90
2023-03-21T11:58:14.985Z,96.10
2023-03-21T12:00:57.667Z,96.40
2023-03-21T12:03:48.772Z,96.90
2023-03-21T12:06:32.850Z,95.00
2023-03-21T12:09:12.500Z,94.70
2023-03-21T12:12:05.171Z,94.60
2023-03-21T12:14:37.880Z,93.40
2023-03-21T12:17:22.611Z,93.30
2023-03-21T12:20:11.145Z,92.90
2023-03-21T12:22:40.905Z,90.50
2023-03-21T12:25:19.407Z,86.70
2023-03-21T12:28:15.266Z,83.40
2023-03-21T12:31:18.701Z,74.50
2023-03-21T12:33:57.549Z,67.90
2023-03-21T12:36:41.985Z,65.50
2023-03-21T12:39:14.228Z,62.60
2023-03-21T12:41:51.863Z,55.00
2023-03-21T12:44:23.809Z,52.60
2023-03-21T12:46:54.214Z,50.50
2023-03-21T12:49:21.120Z,48.60
2023-03-21T12:51:51.795Z,46.90
2023-03-21T12:54:42.845Z,47.50
2023-03-21T12:57:15.498Z,48.10
2023-03-21T13:00:13.489Z,48.00
2023-03-21T13:02:54.973Z,48.10
2023-03-21T13:05:33.003Z,45.10
2023-03-21T13:08:11.983Z,46.80
2023-03-21T13:10:41.644Z,46.70
2023-03-21T13:13:19.687Z,46.80
2023-03-21T13:16:24.182Z,46.60
2023-03-21T13:19:03.069Z,45.50
2023-03-21T13:21:32.764Z,45.80
2023-03-21T13:24:22.823Z,46.50
2023-03-21T13:26:55.669Z,48.40
2023-03-21T13:29:28.721Z,45.00
2023-03-21T13:31:59.360Z,45.80
2023-03-21T13:34:26.896Z,45.20
2023-03-21T13:36:56.976Z,44.10
2023-03-21T13:39:29.101Z,44.20
2023-03-21T13:42:05.596Z,44.30
2023-03-21T13:44:55.315Z,45.30
2023-03-21T13:47:52.562Z,44.10
2023-03-21T13:50:28.495Z,43.60
2023-03-21T13:53:09.910Z,43.70
2023-03-21T13:55:41.818Z,42.50
2023-03-21T13:58:23.798Z,44.80
2023-03-21T14:01:20.584Z,46.00
2023-03-21T14:03:48.081Z,47.50
2023-03-21T14:06:17.665Z,50.40
2023-03-21T14:08:47.497Z,52.70
2023-03-21T14:11:18.813Z,52.20
2023-03-21T14:13:51.393Z,53.10
2023-03-21T14:16:20.390Z,53.00
2023-03-21T14:19:01.515Z,53.10
2023-03-21T14:21:31.613Z,53.10
2023-03-21T14:24:06.325Z,53.80
2023-03-21T14:26:54.320Z,54.60
2023-03-21T14:29:34.995Z,53.30
2023-03-21T14:32:03.038Z,54.50
2023-03-21T14:34:32.863Z,55.50
2023-03-21T14:36:59.644Z,56.00
2023-03-21T14:39:32.151Z,57.00
2023-03-21T14:42:11.415Z,58.10
2023-03-21T14:44:53.933Z,59.10
2023-03-21T14:47:23.170Z,58.00
2023-03-21T14:49:50.806Z,58.50
2023-03-21T14:52:25.342Z,59.30
2023-03-21T14:54:53.818Z,59.00
2023-03-21T14:57:24.868Z,57.80
2023-03-21T14:59:54.864Z,58.50
2023-03-21T15:02:27.037Z,57.90
2023-03-21T15:04:57.292Z,58.20
2023-03-21T15:07:32.633Z,58.80
2023-03-21T15:10:08.998Z,58.40
2023-03-21T15:12:35.826Z,58.60
2023-03-21T15:15:03.231Z,59.30
2023-03-21T15:17:30.640Z,59.70
2023-03-21T15:19:57.440Z,59.50
2023-03-21T15:22:38.917Z,59.20
2023-03-21T15:25:09.177Z,60.00
2023-03-21T15:27:42.644Z,60.50
2023-03-21T15:30:29.805Z,60.50
2023-03-21T15:32:58.695Z,61.30
2023-03-21T15:35:54.168Z,61.00
2023-03-21T15:38:32.752Z,60.40
2023-03-21T15:41:19.021Z,61.30
2023-03-21T15:44:05.580Z,61.00
2023-03-21T15:46:46.264Z,61.90
2023-03-21T15:49:13.124Z,62.70
2023-03-21T15:51:44.002Z,62.50
2023-03-21T15:54:33.314Z,63.70
2023-03-21T15:57:04.750Z,63.20
2023-03-21T15:59:35.745Z,64.40
2023-03-21T16:02:04.303Z,64.70
2023-03-21T16:04:31.317Z,64.30
2023-03-21T16:07:04.666Z,64.40
2023-03-21T16:09:49.468Z,64.10
2023-03-21T16:12:18.753Z,65.40
2023-03-21T16:14:47.311Z,66.30
2023-03-21T16:17:38.013Z,65.50
2023-03-21T16:20:32.710Z,66.50
2023-03-21T16:22:59.592Z,67.70
2023-03-21T16:25:27.064Z,68.70
2023-03-21T16:27:53.827Z,68.70
2023-03-21T16:30:21.626Z,69.90
2023-03-21T16:32:50.502Z,70.70
2023-03-21T16:35:17.684Z,70.70
2023-03-21T16:37:45.123Z,71.60
2023-03-21T16:40:35.911Z,71.70
2023-03-21T16:43:04.074Z,71.50
2023-03-21T16:45:31.047Z,72.30
2023-03-21T16:47:58.286Z,73.20
2023-03-21T16:50:32.225Z,72.80
2023-03-21T16:52:59.454Z,72.60
2023-03-21T16:55:26.665Z,72.70
2023-03-21T16:57:54.096Z,74.30
2023-03-21T17:00:24.550Z,74.00
2023-03-21T17:02:55.032Z,74.50
2023-03-21T17:05:26.911Z,75.40
2023-03-21T17:07:54.793Z,76.30
2023-03-21T17:10:25.706Z,77.60
2023-03-21T17:12:52.669Z,77.70
2023-03-21T17:15:20.690Z,77.70
2023-03-21T17:17:50.016Z,79.30
2023-03-21T17:20:21.249Z,79.20
2023-03-21T17:22:49.231Z,79.90
2023-03-21T17:25:17.100Z,80.60
2023-03-21T17:27:44.578Z,81.70
2023-03-21T17:30:23.662Z,83.60
2023-03-21T17:32:51.810Z,85.40
2023-03-21T17:35:19.410Z,83.50
2023-03-21T17:37:50.463Z,83.70
2023-03-21T17:40:25.829Z,84.60
2023-03-21T17:42:53.350Z,85.20
2023-03-21T17:45:20.211Z,86.90
2023-03-21T17:47:47.174Z,87.80
2023-03-21T17:50:17.299Z,88.70
2023-03-21T17:52:44.049Z,89.70
2023-03-21T17:55:11.171Z,90.30
2023-03-21T17:57:38.376Z,89.00
2023-03-21T18:00:12.590Z,90.60
2023-03-21T18:02:40.378Z,90.00
2023-03-21T18:05:08.500Z,90.40
2023-03-21T18:08:07.639Z,91.00
2023-03-21T18:10:26.899Z,91.40
2023-03-21T18:12:56.074Z,92.00
2023-03-21T18:15:24.526Z,92.40
2023-03-21T18:17:51.599Z,93.10
2023-03-21T18:20:21.076Z,93.10
2023-03-21T18:22:48.000Z,93.60
2023-03-21T18:25:16.541Z,93.90
2023-03-21T18:28:06.286Z,94.10
2023-03-21T18:30:50.404Z,94.20
2023-03-21T18:33:18.036Z,94.90
2023-03-21T18:35:46.369Z,94.90
2023-03-21T18:38:13.796Z,95.30
2023-03-21T18:40:41.275Z,95.60
2023-03-21T18:43:56.015Z,95.70
2023-03-21T18:45:55.438Z,95.90
2023-03-21T18:48:22.674Z,96.10
2023-03-21T18:50:49.460Z,96.40
2023-03-21T18:53:16.451Z,96.70
2023-03-21T18:55:46.564Z,97.10
2023-03-21T18:58:14.577Z,97.30
2023-03-21T19:00:42.819Z,97.70
2023-03-21T19:03:21.812Z,98.20
2023-03-21T19:05:59.404Z,98.50
2023-03-21T19:08:26.476Z,98.90
2023-03-21T19:10:53.301Z,99.10
2023-03-21T19:13:20.110Z,99.20
2023-03-21T19:15:49.581Z,99.30
2023-03-21T19:21:04.231Z,99.50
2023-03-21T19:23:46.841Z,99.60
2023-03-21T19:26:18.114Z,99.60
2023-03-21T19:28:44.895Z,99.90
2023-03-21T19:31:12.038Z,99.90
2023-03-21T19:33:39.148Z,99.80
2023-03-21T19:36:17.655Z,99.90
2023-03-21T19:38:47.932Z,99.90
2023-03-21T19:41:14.719Z,99.90
2023-03-21T19:43:52.806Z,99.90
2023-03-21T19:46:24.881Z,99.90
2023-03-21T19:48:56.206Z,99.90
2023-03-21T19:51:28.690Z,99.90
2023-03-21T19:53:57.453Z,99.90
2023-03-21T19:56:27.034Z,99.90
2023-03-21T19:58:55.502Z,99.90
2023-03-21T20:01:23.125Z,99.90
2023-03-21T20:03:50.012Z,99.90
2023-03-21T20:06:17.178Z,99.90
2023-03-21T20:11:31.412Z,99.90
2023-03-21T20:13:59.869Z,99.90
2023-03-21T20:16:34.237Z,99.90
2023-03-21T20:19:01.683Z,99.90
2023-03-21T20:21:34.839Z,99.90
2023-03-21T20:24:07.410Z,99.90
2023-03-21T20:26:34.428Z,99.90
2023-03-21T20:29:37.279Z,99.90
2023-03-21T20:31:49.994Z,99.90
2023-03-21T20:34:16.774Z,99.90
2023-03-21T20:36:43.898Z,99.90
2023-03-21T20:39:11.120Z,99.90
2023-03-21T20:41:38.225Z,99.90
2023-03-21T20:46:52.134Z,99.90
2023-03-21T20:49:23.030Z,99.90
2023-03-21T20:54:37.296Z,99.90
2023-03-21T20:57:05.123Z,99.90
2023-03-21T20:59:31.884Z,99.90
2023-03-21T21:01:58.827Z,99.90
2023-03-21T21:04:46.755Z,99.90
2023-03-21T21:07:17.737Z,99.90
2023-03-21T21:09:45.594Z,99.90
2023-03-21T21:12:14.062Z,99.90
2023-03-21T21:14:41.941Z,99.90
2023-03-21T21:17:46.674Z,99.90
2023-03-21T21:19:56.292Z,99.90
2023-03-21T21:22:23.018Z,99.90
2023-03-21T21:24:49.937Z,99.90
2023-03-21T21:27:16.911Z,99.90
2023-03-21T21:29:43.707Z,99.90
2023-03-21T21:32:11.243Z,99.90
2023-03-21T21:34:38.300Z,99.90
2023-03-21T21:37:05.251Z,99.90
2023-03-21T21:39:37.844Z,99.90
2023-03-21T21:42:05.427Z,99.90
2023-03-21T21:44:32.313Z,99.90
2023-03-21T21:46:59.509Z,99.90
2023-03-21T21:49:26.976Z,99.90
2023-03-21T21:51:53.799Z,99.90
2023-03-21T21:54:20.554Z,99.90
2023-03-21T21:56:54.345Z,99.90
2023-03-21T21:59:22.179Z,99.90
2023-03-21T22:01:51.202Z,99.90
2023-03-21T22:04:18.886Z,99.90
2023-03-21T22:06:47.561Z,99.90
2023-03-21T22:09:15.650Z,99.90
2023-03-21T22:11:42.725Z,99.90
2023-03-21T22:14:09.516Z,99.90
2023-03-21T22:16:36.335Z,99.90
2023-03-21T22:19:03.412Z,99.90
2023-03-21T22:21:30.223Z,99.90
2023-03-21T22:23:57.044Z,99.90
2023-03-21T22:26:23.854Z,99.90
2023-03-21T22:28:50.675Z,99.90
2023-03-21T22:31:17.929Z,99.90
2023-03-21T22:33:45.739Z,99.90
2023-03-21T22:36:12.702Z,99.90
2023-03-21T22:38:41.726Z,99.90
2023-03-21T22:41:08.513Z,99.90
2023-03-21T22:43:35.429Z,99.90
2023-03-21T22:46:03.446Z,99.90
2023-03-21T22:48:30.844Z,99.90
2023-03-21T22:51:00.809Z,99.90
2023-03-21T22:53:27.918Z,99.90
2023-03-21T22:55:54.977Z,99.90
2023-03-21T22:58:22.491Z,99.90
2023-03-21T23:00:49.349Z,99.90
2023-03-21T23:03:17.009Z,99.90
2023-03-21T23:05:44.924Z,99.90
2023-03-21T23:08:12.680Z,99.90
2023-03-21T23:10:41.387Z,99.90
2023-03-21T23:13:08.225Z,99.90
2023-03-21T23:15:35.262Z,99.90
2023-03-21T23:18:02.242Z,99.90
2023-03-21T23:20:28.948Z,99.90
2023-03-21T23:22:55.689Z,99.90
2023-03-21T23:25:25.094Z,99.90
2023-03-21T23:27:51.894Z,99.90
2023-03-21T23:30:18.811Z,99.90
2023-03-21T23:32:45.693Z,99.90
2023-03-21T23:35:12.818Z,99.90
2023-03-21T23:37:42.373Z,99.90
2023-03-21T23:40:10.405Z,99.90
2023-03-21T23:42:37.253Z,99.90
2023-03-21T23:45:04.856Z,99.90
2023-03-21T23:47:31.534Z,99.90
2023-03-21T23:49:58.304Z,99.90
2023-03-21T23:52:25.245Z,99.90
2023-03-21T23:54:52.297Z,99.90
2023-03-21T23:57:19.125Z,99.90
2023-03-21T23:59:47.026Z,99.90
